sensor_id;sensor_type;location;lat;lon;timestamp;P1;durP1;ratioP1;P2;durP2;ratioP2
77535;SDS011;66659;44.498;0.166;2023-05-07T00:04:46;15.87;;;4.43;;
77535;SDS011;66659;44.498;0.166;2023-05-07T00:10:20;13.53;;;3.20;;
77535;SDS011;66659;44.498;0.166;2023-05-07T00:15:52;16.27;;;3.47;;
77535;SDS011;66659;44.498;0.166;2023-05-07T00:21:27;17.23;;;3.50;;
77535;SDS011;66659;44.498;0.166;2023-05-07T00:26:58;14.60;;;3.10;;
77535;SDS011;66659;44.498;0.166;2023-05-07T00:32:31;12.70;;;3.33;;
77535;SDS011;66659;44.498;0.166;2023-05-07T00:38:03;11.83;;;2.83;;
77535;SDS011;66659;44.498;0.166;2023-05-07T00:54:42;14.23;;;2.70;;
77535;SDS011;66659;44.498;0.166;2023-05-07T01:00:16;10.47;;;3.10;;
77535;SDS011;66659;44.498;0.166;2023-05-07T01:05:48;18.43;;;2.83;;
77535;SDS011;66659;44.498;0.166;2023-05-07T01:11:21;15.30;;;3.33;;
77535;SDS011;66659;44.498;0.166;2023-05-07T01:16:54;14.27;;;2.83;;
77535;SDS011;66659;44.498;0.166;2023-05-07T01:22:29;15.00;;;4.20;;
77535;SDS011;66659;44.498;0.166;2023-05-07T01:28:00;20.30;;;3.43;;
77535;SDS011;66659;44.498;0.166;2023-05-07T01:33:34;22.07;;;5.00;;
77535;SDS011;66659;44.498;0.166;2023-05-07T01:39:08;14.30;;;3.77;;
77535;SDS011;66659;44.498;0.166;2023-05-07T01:44:40;25.37;;;3.70;;
77535;SDS011;66659;44.498;0.166;2023-05-07T02:12:26;17.13;;;3.83;;
77535;SDS011;66659;44.498;0.166;2023-05-07T02:17:59;21.27;;;3.80;;
77535;SDS011;66659;44.498;0.166;2023-05-07T02:23:30;13.57;;;4.30;;
77535;SDS011;66659;44.498;0.166;2023-05-07T02:29:03;14.40;;;4.10;;
77535;SDS011;66659;44.498;0.166;2023-05-07T02:34:36;21.30;;;4.70;;
77535;SDS011;66659;44.498;0.166;2023-05-07T02:40:09;15.63;;;4.23;;
77535;SDS011;66659;44.498;0.166;2023-05-07T02:45:43;12.77;;;3.93;;
77535;SDS011;66659;44.498;0.166;2023-05-07T02:51:14;14.63;;;4.43;;
77535;SDS011;66659;44.498;0.166;2023-05-07T02:56:47;18.03;;;3.70;;
77535;SDS011;66659;44.498;0.166;2023-05-07T03:02:21;15.07;;;4.03;;
77535;SDS011;66659;44.498;0.166;2023-05-07T03:07:55;16.80;;;3.77;;
77535;SDS011;66659;44.498;0.166;2023-05-07T03:13:27;15.33;;;4.00;;
77535;SDS011;66659;44.498;0.166;2023-05-07T03:19:01;13.63;;;4.17;;
77535;SDS011;66659;44.498;0.166;2023-05-07T03:24:33;15.00;;;3.90;;
77535;SDS011;66659;44.498;0.166;2023-05-07T03:30:07;14.10;;;4.20;;
77535;SDS011;66659;44.498;0.166;2023-05-07T03:35:38;15.40;;;4.10;;
77535;SDS011;66659;44.498;0.166;2023-05-07T03:41:10;21.60;;;5.03;;
77535;SDS011;66659;44.498;0.166;2023-05-07T03:46:43;16.13;;;3.97;;
77535;SDS011;66659;44.498;0.166;2023-05-07T03:52:17;11.67;;;3.80;;
77535;SDS011;66659;44.498;0.166;2023-05-07T03:57:49;12.27;;;3.40;;
77535;SDS011;66659;44.498;0.166;2023-05-07T04:03:22;14.47;;;4.97;;
77535;SDS011;66659;44.498;0.166;2023-05-07T04:08:54;18.83;;;4.37;;
77535;SDS011;66659;44.498;0.166;2023-05-07T04:14:27;21.00;;;4.00;;
77535;SDS011;66659;44.498;0.166;2023-05-07T04:19:59;15.17;;;4.03;;
77535;SDS011;66659;44.498;0.166;2023-05-07T04:25:32;18.73;;;4.37;;
77535;SDS011;66659;44.498;0.166;2023-05-07T04:31:06;15.53;;;4.37;;
77535;SDS011;66659;44.498;0.166;2023-05-07T04:36:38;19.80;;;4.70;;
77535;SDS011;66659;44.498;0.166;2023-05-07T04:42:14;12.60;;;3.47;;
77535;SDS011;66659;44.498;0.166;2023-05-07T04:47:45;17.30;;;4.27;;
77535;SDS011;66659;44.498;0.166;2023-05-07T04:53:17;16.70;;;4.90;;
77535;SDS011;66659;44.498;0.166;2023-05-07T04:58:50;11.73;;;3.57;;
77535;SDS011;66659;44.498;0.166;2023-05-07T05:04:23;15.47;;;3.97;;
77535;SDS011;66659;44.498;0.166;2023-05-07T05:09:55;16.20;;;4.30;;
77535;SDS011;66659;44.498;0.166;2023-05-07T05:15:27;12.37;;;4.27;;
77535;SDS011;66659;44.498;0.166;2023-05-07T05:20:59;13.63;;;4.90;;
77535;SDS011;66659;44.498;0.166;2023-05-07T05:26:34;15.40;;;4.67;;
77535;SDS011;66659;44.498;0.166;2023-05-07T05:32:06;16.47;;;5.23;;
77535;SDS011;66659;44.498;0.166;2023-05-07T05:37:39;15.87;;;3.77;;
77535;SDS011;66659;44.498;0.166;2023-05-07T05:43:13;16.67;;;4.83;;
77535;SDS011;66659;44.498;0.166;2023-05-07T05:48:45;17.83;;;5.37;;
77535;SDS011;66659;44.498;0.166;2023-05-07T05:54:19;16.60;;;3.97;;
77535;SDS011;66659;44.498;0.166;2023-05-07T05:59:52;14.27;;;4.40;;
77535;SDS011;66659;44.498;0.166;2023-05-07T06:05:25;11.53;;;4.00;;
77535;SDS011;66659;44.498;0.166;2023-05-07T06:10:59;13.73;;;4.03;;
77535;SDS011;66659;44.498;0.166;2023-05-07T06:16:33;17.23;;;4.03;;
77535;SDS011;66659;44.498;0.166;2023-05-07T06:22:06;14.30;;;4.17;;
77535;SDS011;66659;44.498;0.166;2023-05-07T06:27:40;18.03;;;5.67;;
77535;SDS011;66659;44.498;0.166;2023-05-07T06:33:13;12.23;;;3.67;;
77535;SDS011;66659;44.498;0.166;2023-05-07T06:38:45;17.43;;;4.87;;
77535;SDS011;66659;44.498;0.166;2023-05-07T06:44:19;19.87;;;4.07;;
77535;SDS011;66659;44.498;0.166;2023-05-07T06:49:52;14.40;;;3.40;;
77535;SDS011;66659;44.498;0.166;2023-05-07T06:55:24;17.53;;;4.10;;
77535;SDS011;66659;44.498;0.166;2023-05-07T07:00:58;20.63;;;4.17;;
77535;SDS011;66659;44.498;0.166;2023-05-07T07:06:32;15.30;;;3.80;;
77535;SDS011;66659;44.498;0.166;2023-05-07T07:12:04;17.57;;;4.73;;
77535;SDS011;66659;44.498;0.166;2023-05-07T07:17:37;15.27;;;4.37;;
77535;SDS011;66659;44.498;0.166;2023-05-07T07:23:10;10.20;;;3.73;;
77535;SDS011;66659;44.498;0.166;2023-05-07T07:28:45;13.40;;;3.80;;
77535;SDS011;66659;44.498;0.166;2023-05-07T07:34:17;15.47;;;4.40;;
77535;SDS011;66659;44.498;0.166;2023-05-07T07:39:50;19.47;;;4.60;;
77535;SDS011;66659;44.498;0.166;2023-05-07T07:45:23;19.77;;;4.13;;
77535;SDS011;66659;44.498;0.166;2023-05-07T07:50:56;17.77;;;4.07;;
77535;SDS011;66659;44.498;0.166;2023-05-07T07:56:28;18.13;;;4.07;;
77535;SDS011;66659;44.498;0.166;2023-05-07T08:02:02;14.13;;;3.77;;
77535;SDS011;66659;44.498;0.166;2023-05-07T08:07:36;15.43;;;3.77;;
77535;SDS011;66659;44.498;0.166;2023-05-07T08:13:09;9.77;;;2.60;;
77535;SDS011;66659;44.498;0.166;2023-05-07T08:18:42;15.20;;;3.23;;
77535;SDS011;66659;44.498;0.166;2023-05-07T08:24:15;14.90;;;3.47;;
77535;SDS011;66659;44.498;0.166;2023-05-07T08:29:48;11.73;;;2.40;;
77535;SDS011;66659;44.498;0.166;2023-05-07T08:35:21;18.63;;;3.50;;
77535;SDS011;66659;44.498;0.166;2023-05-07T08:40:54;9.60;;;2.60;;
77535;SDS011;66659;44.498;0.166;2023-05-07T08:46:28;10.73;;;3.13;;
77535;SDS011;66659;44.498;0.166;2023-05-07T08:52:00;10.97;;;2.97;;
77535;SDS011;66659;44.498;0.166;2023-05-07T08:57:33;15.07;;;3.60;;
77535;SDS011;66659;44.498;0.166;2023-05-07T09:03:06;17.87;;;3.90;;
77535;SDS011;66659;44.498;0.166;2023-05-07T09:08:39;11.77;;;3.10;;
77535;SDS011;66659;44.498;0.166;2023-05-07T09:14:11;17.00;;;3.97;;
77535;SDS011;66659;44.498;0.166;2023-05-07T09:19:45;15.37;;;2.57;;
77535;SDS011;66659;44.498;0.166;2023-05-07T09:25:20;8.80;;;1.83;;
77535;SDS011;66659;44.498;0.166;2023-05-07T09:30:50;14.17;;;2.67;;
77535;SDS011;66659;44.498;0.166;2023-05-07T09:36:23;10.70;;;2.40;;
77535;SDS011;66659;44.498;0.166;2023-05-07T09:41:59;12.93;;;1.90;;
77535;SDS011;66659;44.498;0.166;2023-05-07T09:47:31;7.90;;;2.63;;
77535;SDS011;66659;44.498;0.166;2023-05-07T09:53:03;11.83;;;2.43;;
77535;SDS011;66659;44.498;0.166;2023-05-07T09:58:36;15.57;;;2.70;;
77535;SDS011;66659;44.498;0.166;2023-05-07T10:04:09;12.20;;;1.93;;
77535;SDS011;66659;44.498;0.166;2023-05-07T10:09:44;9.37;;;2.00;;
77535;SDS011;66659;44.498;0.166;2023-05-07T10:15:15;15.27;;;2.10;;
77535;SDS011;66659;44.498;0.166;2023-05-07T10:20:49;10.27;;;2.07;;
77535;SDS011;66659;44.498;0.166;2023-05-07T10:26:23;11.70;;;2.00;;
77535;SDS011;66659;44.498;0.166;2023-05-07T10:31:58;7.17;;;1.67;;
77535;SDS011;66659;44.498;0.166;2023-05-07T10:37:29;7.10;;;1.40;;
77535;SDS011;66659;44.498;0.166;2023-05-07T10:43:03;7.93;;;1.87;;
77535;SDS011;66659;44.498;0.166;2023-05-07T10:48:36;7.27;;;1.40;;
77535;SDS011;66659;44.498;0.166;2023-05-07T10:59:42;8.63;;;1.70;;
77535;SDS011;66659;44.498;0.166;2023-05-07T11:05:20;7.70;;;1.57;;
77535;SDS011;66659;44.498;0.166;2023-05-07T11:10:49;7.10;;;1.43;;
77535;SDS011;66659;44.498;0.166;2023-05-07T11:16:18;6.33;;;1.50;;
77535;SDS011;66659;44.498;0.166;2023-05-07T11:21:54;4.97;;;1.30;;
77535;SDS011;66659;44.498;0.166;2023-05-07T11:27:24;11.40;;;1.97;;
77535;SDS011;66659;44.498;0.166;2023-05-07T11:32:58;8.07;;;1.50;;
77535;SDS011;66659;44.498;0.166;2023-05-07T11:38:35;7.87;;;1.40;;
77535;SDS011;66659;44.498;0.166;2023-05-07T11:44:02;9.23;;;2.00;;
77535;SDS011;66659;44.498;0.166;2023-05-07T11:49:35;6.53;;;1.50;;
77535;SDS011;66659;44.498;0.166;2023-05-07T11:55:08;9.40;;;1.80;;
77535;SDS011;66659;44.498;0.166;2023-05-07T12:00:40;6.10;;;1.40;;
77535;SDS011;66659;44.498;0.166;2023-05-07T12:06:15;4.90;;;1.67;;
77535;SDS011;66659;44.498;0.166;2023-05-07T12:11:47;5.17;;;1.00;;
77535;SDS011;66659;44.498;0.166;2023-05-07T12:17:21;9.90;;;2.00;;
77535;SDS011;66659;44.498;0.166;2023-05-07T12:22:54;4.40;;;1.03;;
77535;SDS011;66659;44.498;0.166;2023-05-07T12:28:25;14.77;;;3.60;;
77535;SDS011;66659;44.498;0.166;2023-05-07T12:33:58;7.03;;;1.50;;
77535;SDS011;66659;44.498;0.166;2023-05-07T12:39:32;5.00;;;1.03;;
77535;SDS011;66659;44.498;0.166;2023-05-07T12:45:08;5.43;;;1.50;;
77535;SDS011;66659;44.498;0.166;2023-05-07T12:50:39;6.53;;;1.37;;
77535;SDS011;66659;44.498;0.166;2023-05-07T12:56:11;8.63;;;1.37;;
77535;SDS011;66659;44.498;0.166;2023-05-07T13:01:43;6.27;;;1.23;;
77535;SDS011;66659;44.498;0.166;2023-05-07T13:07:17;7.27;;;1.20;;
77535;SDS011;66659;44.498;0.166;2023-05-07T13:12:48;10.20;;;1.90;;
77535;SDS011;66659;44.498;0.166;2023-05-07T13:18:21;6.43;;;1.37;;
77535;SDS011;66659;44.498;0.166;2023-05-07T13:23:52;5.83;;;1.30;;
77535;SDS011;66659;44.498;0.166;2023-05-07T13:29:29;6.50;;;1.23;;
77535;SDS011;66659;44.498;0.166;2023-05-07T13:34:58;7.70;;;1.60;;
77535;SDS011;66659;44.498;0.166;2023-05-07T13:40:30;4.60;;;0.93;;
77535;SDS011;66659;44.498;0.166;2023-05-07T13:46:03;4.30;;;1.03;;
77535;SDS011;66659;44.498;0.166;2023-05-07T13:51:35;5.80;;;1.07;;
77535;SDS011;66659;44.498;0.166;2023-05-07T13:57:09;8.87;;;2.03;;
77535;SDS011;66659;44.498;0.166;2023-05-07T14:02:44;4.93;;;0.87;;
77535;SDS011;66659;44.498;0.166;2023-05-07T14:08:15;6.03;;;1.40;;
77535;SDS011;66659;44.498;0.166;2023-05-07T14:13:48;4.70;;;0.97;;
77535;SDS011;66659;44.498;0.166;2023-05-07T14:19:23;6.20;;;1.17;;
77535;SDS011;66659;44.498;0.166;2023-05-07T14:24:57;6.30;;;1.40;;
77535;SDS011;66659;44.498;0.166;2023-05-07T14:30:30;6.17;;;1.00;;
77535;SDS011;66659;44.498;0.166;2023-05-07T14:36:04;5.70;;;1.10;;
77535;SDS011;66659;44.498;0.166;2023-05-07T14:41:35;10.43;;;2.27;;
77535;SDS011;66659;44.498;0.166;2023-05-07T14:52:41;5.13;;;0.97;;
77535;SDS011;66659;44.498;0.166;2023-05-07T14:58:14;9.80;;;1.83;;
77535;SDS011;66659;44.498;0.166;2023-05-07T15:03:46;6.97;;;1.27;;
77535;SDS011;66659;44.498;0.166;2023-05-07T15:09:20;8.47;;;1.20;;
77535;SDS011;66659;44.498;0.166;2023-05-07T15:14:53;6.93;;;1.50;;
77535;SDS011;66659;44.498;0.166;2023-05-07T15:20:27;8.67;;;1.93;;
77535;SDS011;66659;44.498;0.166;2023-05-07T15:26:02;6.70;;;1.77;;
77535;SDS011;66659;44.498;0.166;2023-05-07T15:31:34;6.57;;;1.50;;
77535;SDS011;66659;44.498;0.166;2023-05-07T15:37:07;11.03;;;1.70;;
77535;SDS011;66659;44.498;0.166;2023-05-07T15:42:39;8.23;;;1.40;;
77535;SDS011;66659;44.498;0.166;2023-05-07T15:48:11;12.53;;;1.57;;
77535;SDS011;66659;44.498;0.166;2023-05-07T16:04:50;7.33;;;1.70;;
77535;SDS011;66659;44.498;0.166;2023-05-07T16:10:22;7.63;;;1.43;;
77535;SDS011;66659;44.498;0.166;2023-05-07T16:15:56;10.40;;;2.37;;
77535;SDS011;66659;44.498;0.166;2023-05-07T16:21:29;4.00;;;1.07;;
77535;SDS011;66659;44.498;0.166;2023-05-07T16:27:01;7.97;;;1.80;;
77535;SDS011;66659;44.498;0.166;2023-05-07T16:38:09;9.27;;;1.70;;
77535;SDS011;66659;44.498;0.166;2023-05-07T16:43:37;12.57;;;1.90;;
77535;SDS011;66659;44.498;0.166;2023-05-07T16:49:11;7.40;;;1.40;;
77535;SDS011;66659;44.498;0.166;2023-05-07T16:54:43;11.30;;;1.50;;
77535;SDS011;66659;44.498;0.166;2023-05-07T17:00:16;10.67;;;1.50;;
77535;SDS011;66659;44.498;0.166;2023-05-07T17:05:49;10.70;;;1.83;;
77535;SDS011;66659;44.498;0.166;2023-05-07T17:11:22;12.67;;;1.80;;
77535;SDS011;66659;44.498;0.166;2023-05-07T17:16:55;11.03;;;2.40;;
77535;SDS011;66659;44.498;0.166;2023-05-07T17:22:28;7.57;;;1.80;;
77535;SDS011;66659;44.498;0.166;2023-05-07T17:28:00;7.00;;;1.60;;
77535;SDS011;66659;44.498;0.166;2023-05-07T17:33:33;11.30;;;2.07;;
77535;SDS011;66659;44.498;0.166;2023-05-07T17:39:07;12.20;;;1.70;;
77535;SDS011;66659;44.498;0.166;2023-05-07T17:44:40;8.37;;;1.27;;
77535;SDS011;66659;44.498;0.166;2023-05-07T17:50:12;7.57;;;1.33;;
77535;SDS011;66659;44.498;0.166;2023-05-07T17:55:46;10.37;;;1.70;;
77535;SDS011;66659;44.498;0.166;2023-05-07T18:01:18;12.10;;;1.87;;
77535;SDS011;66659;44.498;0.166;2023-05-07T18:06:51;11.60;;;1.40;;
77535;SDS011;66659;44.498;0.166;2023-05-07T18:12:24;9.37;;;1.30;;
77535;SDS011;66659;44.498;0.166;2023-05-07T18:17:56;15.07;;;1.90;;
77535;SDS011;66659;44.498;0.166;2023-05-07T18:23:28;7.67;;;1.83;;
77535;SDS011;66659;44.498;0.166;2023-05-07T18:29:01;12.87;;;1.93;;
77535;SDS011;66659;44.498;0.166;2023-05-07T18:34:34;11.20;;;1.80;;
77535;SDS011;66659;44.498;0.166;2023-05-07T18:40:08;8.67;;;2.20;;
77535;SDS011;66659;44.498;0.166;2023-05-07T18:45:40;11.10;;;2.53;;
77535;SDS011;66659;44.498;0.166;2023-05-07T18:51:12;12.00;;;1.70;;
77535;SDS011;66659;44.498;0.166;2023-05-07T18:56:45;11.43;;;2.03;;
77535;SDS011;66659;44.498;0.166;2023-05-07T19:07:50;8.73;;;2.37;;
77535;SDS011;66659;44.498;0.166;2023-05-07T19:13:24;11.20;;;1.90;;
77535;SDS011;66659;44.498;0.166;2023-05-07T19:18:55;14.03;;;3.33;;
77535;SDS011;66659;44.498;0.166;2023-05-07T19:24:28;13.13;;;2.80;;
77535;SDS011;66659;44.498;0.166;2023-05-07T19:30:03;9.27;;;2.30;;
77535;SDS011;66659;44.498;0.166;2023-05-07T19:35:36;15.73;;;2.83;;
77535;SDS011;66659;44.498;0.166;2023-05-07T19:41:08;7.20;;;2.00;;
77535;SDS011;66659;44.498;0.166;2023-05-07T19:46:44;7.90;;;2.00;;
77535;SDS011;66659;44.498;0.166;2023-05-07T19:52:13;12.10;;;2.70;;
77535;SDS011;66659;44.498;0.166;2023-05-07T19:57:49;13.67;;;2.17;;
77535;SDS011;66659;44.498;0.166;2023-05-07T20:03:19;10.43;;;2.70;;
77535;SDS011;66659;44.498;0.166;2023-05-07T20:08:54;8.57;;;1.63;;
77535;SDS011;66659;44.498;0.166;2023-05-07T20:14:27;7.17;;;2.27;;
77535;SDS011;66659;44.498;0.166;2023-05-07T20:19:59;7.10;;;2.20;;
77535;SDS011;66659;44.498;0.166;2023-05-07T20:25:32;10.10;;;2.10;;
77535;SDS011;66659;44.498;0.166;2023-05-07T20:31:04;8.50;;;1.97;;
77535;SDS011;66659;44.498;0.166;2023-05-07T20:36:37;18.33;;;2.70;;
77535;SDS011;66659;44.498;0.166;2023-05-07T20:42:11;10.17;;;3.10;;
77535;SDS011;66659;44.498;0.166;2023-05-07T20:47:44;12.47;;;2.47;;
77535;SDS011;66659;44.498;0.166;2023-05-07T20:53:18;13.90;;;2.07;;
77535;SDS011;66659;44.498;0.166;2023-05-07T20:58:51;10.47;;;2.33;;
77535;SDS011;66659;44.498;0.166;2023-05-07T21:04:25;12.87;;;2.50;;
77535;SDS011;66659;44.498;0.166;2023-05-07T21:09:57;8.33;;;2.60;;
77535;SDS011;66659;44.498;0.166;2023-05-07T21:15:30;12.10;;;2.23;;
77535;SDS011;66659;44.498;0.166;2023-05-07T21:21:05;7.87;;;3.37;;
77535;SDS011;66659;44.498;0.166;2023-05-07T21:26:36;11.43;;;3.07;;
77535;SDS011;66659;44.498;0.166;2023-05-07T21:32:09;12.93;;;2.63;;
77535;SDS011;66659;44.498;0.166;2023-05-07T21:37:41;10.13;;;2.20;;
77535;SDS011;66659;44.498;0.166;2023-05-07T21:43:15;9.30;;;2.07;;
77535;SDS011;66659;44.498;0.166;2023-05-07T21:48:46;14.37;;;3.40;;
77535;SDS011;66659;44.498;0.166;2023-05-07T21:54:19;11.60;;;3.10;;
77535;SDS011;66659;44.498;0.166;2023-05-07T21:59:54;13.77;;;3.47;;
77535;SDS011;66659;44.498;0.166;2023-05-07T22:05:26;9.23;;;2.37;;
77535;SDS011;66659;44.498;0.166;2023-05-07T22:11:00;12.17;;;2.87;;
77535;SDS011;66659;44.498;0.166;2023-05-07T22:16:32;8.53;;;2.20;;
77535;SDS011;66659;44.498;0.166;2023-05-07T22:22:04;10.13;;;2.57;;
77535;SDS011;66659;44.498;0.166;2023-05-07T22:27:37;9.43;;;2.80;;
77535;SDS011;66659;44.498;0.166;2023-05-07T22:33:11;14.83;;;3.57;;
77535;SDS011;66659;44.498;0.166;2023-05-07T22:38:44;12.17;;;3.17;;
77535;SDS011;66659;44.498;0.166;2023-05-07T22:44:17;14.53;;;3.07;;
77535;SDS011;66659;44.498;0.166;2023-05-07T22:49:51;12.20;;;3.07;;
77535;SDS011;66659;44.498;0.166;2023-05-07T22:55:24;10.83;;;2.67;;
77535;SDS011;66659;44.498;0.166;2023-05-07T23:00:56;13.87;;;2.83;;
77535;SDS011;66659;44.498;0.166;2023-05-07T23:06:30;23.37;;;4.27;;
77535;SDS011;66659;44.498;0.166;2023-05-07T23:12:04;11.87;;;3.20;;
77535;SDS011;66659;44.498;0.166;2023-05-07T23:17:36;13.83;;;3.00;;
77535;SDS011;66659;44.498;0.166;2023-05-07T23:23:10;9.20;;;3.00;;
77535;SDS011;66659;44.498;0.166;2023-05-07T23:28:42;17.67;;;3.23;;
77535;SDS011;66659;44.498;0.166;2023-05-07T23:34:21;13.87;;;2.80;;
77535;SDS011;66659;44.498;0.166;2023-05-07T23:39:51;16.00;;;3.87;;
77535;SDS011;66659;44.498;0.166;2023-05-07T23:45:23;16.13;;;3.53;;
77535;SDS011;66659;44.498;0.166;2023-05-07T23:50:57;8.70;;;2.90;;
77535;SDS011;66659;44.498;0.166;2023-05-07T23:56:31;12.70;;;3.17;;
